sensor_id;sensor_type;location;lat;lon;timestamp;P1;durP1;ratioP1;P2;durP2;ratioP2
11247;SDS011;5681;53.316;13.950;2023-07-22T00:02:18;2.50;;;2.30;;
11247;SDS011;5681;53.316;13.950;2023-07-22T00:04:45;4.90;;;2.35;;
11247;SDS011;5681;53.316;13.950;2023-07-22T00:07:12;2.85;;;2.65;;
11247;SDS011;5681;53.316;13.950;2023-07-22T00:09:38;2.88;;;2.60;;
11247;SDS011;5681;53.316;13.950;2023-07-22T00:12:08;3.53;;;2.65;;
11247;SDS011;5681;53.316;13.950;2023-07-22T00:14:36;3.22;;;2.92;;
11247;SDS011;5681;53.316;13.950;2023-07-22T00:17:04;3.75;;;2.78;;
11247;SDS011;5681;53.316;13.950;2023-07-22T00:19:31;3.17;;;2.88;;
11247;SDS011;5681;53.316;13.950;2023-07-22T00:21:57;3.20;;;2.63;;
11247;SDS011;5681;53.316;13.950;2023-07-22T00:24:24;3.95;;;2.58;;
11247;SDS011;5681;53.316;13.950;2023-07-22T00:26:50;5.07;;;2.70;;
11247;SDS011;5681;53.316;13.950;2023-07-22T00:29:18;3.40;;;2.72;;
11247;SDS011;5681;53.316;13.950;2023-07-22T00:31:44;4.78;;;3.03;;
11247;SDS011;5681;53.316;13.950;2023-07-22T00:34:11;3.83;;;3.40;;
11247;SDS011;5681;53.316;13.950;2023-07-22T00:36:37;3.88;;;3.10;;
11247;SDS011;5681;53.316;13.950;2023-07-22T00:39:03;3.35;;;3.00;;
11247;SDS011;5681;53.316;13.950;2023-07-22T00:41:30;3.88;;;3.50;;
11247;SDS011;5681;53.316;13.950;2023-07-22T00:43:56;3.97;;;3.50;;
11247;SDS011;5681;53.316;13.950;2023-07-22T00:46:24;5.53;;;3.17;;
11247;SDS011;5681;53.316;13.950;2023-07-22T00:48:50;4.45;;;3.13;;
11247;SDS011;5681;53.316;13.950;2023-07-22T00:51:17;5.63;;;3.30;;
11247;SDS011;5681;53.316;13.950;2023-07-22T00:53:44;3.92;;;3.35;;
11247;SDS011;5681;53.316;13.950;2023-07-22T00:56:10;4.53;;;3.45;;
11247;SDS011;5681;53.316;13.950;2023-07-22T00:58:37;4.22;;;3.45;;
11247;SDS011;5681;53.316;13.950;2023-07-22T01:01:03;6.30;;;3.95;;
11247;SDS011;5681;53.316;13.950;2023-07-22T01:03:31;4.63;;;3.70;;
11247;SDS011;5681;53.316;13.950;2023-07-22T01:05:57;4.07;;;3.67;;
11247;SDS011;5681;53.316;13.950;2023-07-22T01:08:25;4.63;;;4.13;;
11247;SDS011;5681;53.316;13.950;2023-07-22T01:10:52;4.70;;;3.88;;
11247;SDS011;5681;53.316;13.950;2023-07-22T01:13:19;4.20;;;3.80;;
11247;SDS011;5681;53.316;13.950;2023-07-22T01:15:46;4.80;;;3.83;;
11247;SDS011;5681;53.316;13.950;2023-07-22T01:18:12;4.40;;;3.85;;
11247;SDS011;5681;53.316;13.950;2023-07-22T01:20:40;5.80;;;4.10;;
11247;SDS011;5681;53.316;13.950;2023-07-22T01:23:07;4.60;;;4.20;;
11247;SDS011;5681;53.316;13.950;2023-07-22T01:25:34;4.43;;;4.03;;
11247;SDS011;5681;53.316;13.950;2023-07-22T01:28:00;6.72;;;4.00;;
11247;SDS011;5681;53.316;13.950;2023-07-22T01:30:27;5.10;;;3.83;;
11247;SDS011;5681;53.316;13.950;2023-07-22T01:32:53;4.07;;;3.65;;
11247;SDS011;5681;53.316;13.950;2023-07-22T01:35:19;5.32;;;3.97;;
11247;SDS011;5681;53.316;13.950;2023-07-22T01:37:46;5.03;;;3.92;;
11247;SDS011;5681;53.316;13.950;2023-07-22T01:40:14;6.15;;;3.90;;
11247;SDS011;5681;53.316;13.950;2023-07-22T01:42:40;5.05;;;3.92;;
11247;SDS011;5681;53.316;13.950;2023-07-22T01:45:07;4.80;;;4.07;;
11247;SDS011;5681;53.316;13.950;2023-07-22T01:47:34;4.90;;;4.10;;
11247;SDS011;5681;53.316;13.950;2023-07-22T01:50:01;4.35;;;3.80;;
11247;SDS011;5681;53.316;13.950;2023-07-22T01:52:28;4.20;;;3.67;;
11247;SDS011;5681;53.316;13.950;2023-07-22T01:54:54;5.13;;;3.90;;
11247;SDS011;5681;53.316;13.950;2023-07-22T01:57:22;4.35;;;3.95;;
11247;SDS011;5681;53.316;13.950;2023-07-22T01:59:48;4.15;;;3.75;;
11247;SDS011;5681;53.316;13.950;2023-07-22T02:02:14;4.53;;;4.10;;
11247;SDS011;5681;53.316;13.950;2023-07-22T02:04:40;3.92;;;3.60;;
11247;SDS011;5681;53.316;13.950;2023-07-22T02:07:07;4.10;;;3.70;;
11247;SDS011;5681;53.316;13.950;2023-07-22T02:09:33;4.82;;;4.30;;
11247;SDS011;5681;53.316;13.950;2023-07-22T02:12:00;3.90;;;3.60;;
11247;SDS011;5681;53.316;13.950;2023-07-22T02:14:28;7.32;;;3.70;;
11247;SDS011;5681;53.316;13.950;2023-07-22T02:16:54;3.60;;;3.28;;
11247;SDS011;5681;53.316;13.950;2023-07-22T02:19:20;6.15;;;3.50;;
11247;SDS011;5681;53.316;13.950;2023-07-22T02:21:47;3.92;;;3.53;;
11247;SDS011;5681;53.316;13.950;2023-07-22T02:24:14;4.07;;;3.60;;
11247;SDS011;5681;53.316;13.950;2023-07-22T02:26:41;5.22;;;3.30;;
11247;SDS011;5681;53.316;13.950;2023-07-22T02:29:07;4.70;;;3.55;;
11247;SDS011;5681;53.316;13.950;2023-07-22T02:31:35;3.72;;;3.03;;
11247;SDS011;5681;53.316;13.950;2023-07-22T02:34:01;3.67;;;3.08;;
11247;SDS011;5681;53.316;13.950;2023-07-22T02:36:27;5.70;;;3.80;;
11247;SDS011;5681;53.316;13.950;2023-07-22T02:38:54;4.43;;;3.38;;
11247;SDS011;5681;53.316;13.950;2023-07-22T02:41:20;3.92;;;3.33;;
11247;SDS011;5681;53.316;13.950;2023-07-22T02:43:46;4.60;;;3.67;;
11247;SDS011;5681;53.316;13.950;2023-07-22T02:46:13;3.83;;;3.53;;
11247;SDS011;5681;53.316;13.950;2023-07-22T02:48:40;4.72;;;3.70;;
11247;SDS011;5681;53.316;13.950;2023-07-22T02:51:07;4.07;;;3.55;;
11247;SDS011;5681;53.316;13.950;2023-07-22T02:53:34;3.97;;;3.67;;
11247;SDS011;5681;53.316;13.950;2023-07-22T02:56:02;4.05;;;3.67;;
11247;SDS011;5681;53.316;13.950;2023-07-22T02:58:29;6.90;;;3.50;;
11247;SDS011;5681;53.316;13.950;2023-07-22T03:00:55;5.15;;;3.70;;
11247;SDS011;5681;53.316;13.950;2023-07-22T03:03:22;3.92;;;3.63;;
11247;SDS011;5681;53.316;13.950;2023-07-22T03:05:50;4.38;;;3.92;;
11247;SDS011;5681;53.316;13.950;2023-07-22T03:08:17;5.22;;;4.10;;
11247;SDS011;5681;53.316;13.950;2023-07-22T03:10:44;4.93;;;4.18;;
11247;SDS011;5681;53.316;13.950;2023-07-22T03:13:13;5.20;;;4.50;;
11247;SDS011;5681;53.316;13.950;2023-07-22T03:15:39;5.65;;;4.40;;
11247;SDS011;5681;53.316;13.950;2023-07-22T03:18:06;5.13;;;4.63;;
11247;SDS011;5681;53.316;13.950;2023-07-22T03:20:32;4.85;;;4.40;;
11247;SDS011;5681;53.316;13.950;2023-07-22T03:23:00;6.28;;;4.57;;
11247;SDS011;5681;53.316;13.950;2023-07-22T03:25:26;5.63;;;4.78;;
11247;SDS011;5681;53.316;13.950;2023-07-22T03:27:52;6.10;;;4.72;;
11247;SDS011;5681;53.316;13.950;2023-07-22T03:30:21;5.13;;;4.72;;
11247;SDS011;5681;53.316;13.950;2023-07-22T03:32:48;5.82;;;4.75;;
11247;SDS011;5681;53.316;13.950;2023-07-22T03:35:15;5.40;;;4.90;;
11247;SDS011;5681;53.316;13.950;2023-07-22T03:37:42;4.53;;;4.13;;
11247;SDS011;5681;53.316;13.950;2023-07-22T03:40:10;6.35;;;4.82;;
11247;SDS011;5681;53.316;13.950;2023-07-22T03:42:42;4.88;;;4.35;;
11247;SDS011;5681;53.316;13.950;2023-07-22T03:45:09;5.20;;;4.65;;
11247;SDS011;5681;53.316;13.950;2023-07-22T03:47:35;5.22;;;4.60;;
11247;SDS011;5681;53.316;13.950;2023-07-22T03:50:02;5.78;;;4.55;;
11247;SDS011;5681;53.316;13.950;2023-07-22T03:52:28;4.85;;;4.30;;
11247;SDS011;5681;53.316;13.950;2023-07-22T03:54:55;4.53;;;4.13;;
11247;SDS011;5681;53.316;13.950;2023-07-22T03:57:26;6.75;;;4.07;;
11247;SDS011;5681;53.316;13.950;2023-07-22T03:59:52;5.85;;;4.70;;
11247;SDS011;5681;53.316;13.950;2023-07-22T04:02:19;6.75;;;4.13;;
11247;SDS011;5681;53.316;13.950;2023-07-22T04:04:45;4.18;;;3.83;;
11247;SDS011;5681;53.316;13.950;2023-07-22T04:07:11;4.43;;;4.00;;
11247;SDS011;5681;53.316;13.950;2023-07-22T04:09:38;4.40;;;4.00;;
11247;SDS011;5681;53.316;13.950;2023-07-22T04:12:05;4.75;;;3.97;;
11247;SDS011;5681;53.316;13.950;2023-07-22T04:14:34;4.00;;;3.70;;
11247;SDS011;5681;53.316;13.950;2023-07-22T04:17:00;5.47;;;4.15;;
11247;SDS011;5681;53.316;13.950;2023-07-22T04:19:27;4.28;;;3.70;;
11247;SDS011;5681;53.316;13.950;2023-07-22T04:21:53;4.40;;;4.00;;
11247;SDS011;5681;53.316;13.950;2023-07-22T04:24:20;3.70;;;3.40;;
11247;SDS011;5681;53.316;13.950;2023-07-22T04:26:46;4.72;;;3.70;;
11247;SDS011;5681;53.316;13.950;2023-07-22T04:29:12;4.38;;;3.60;;
11247;SDS011;5681;53.316;13.950;2023-07-22T04:31:40;4.80;;;3.38;;
11247;SDS011;5681;53.316;13.950;2023-07-22T04:34:06;6.57;;;3.67;;
11247;SDS011;5681;53.316;13.950;2023-07-22T04:36:33;5.55;;;3.45;;
11247;SDS011;5681;53.316;13.950;2023-07-22T04:38:59;5.60;;;3.80;;
11247;SDS011;5681;53.316;13.950;2023-07-22T04:41:26;5.40;;;3.83;;
11247;SDS011;5681;53.316;13.950;2023-07-22T04:43:52;4.82;;;3.47;;
11247;SDS011;5681;53.316;13.950;2023-07-22T04:46:18;5.97;;;3.58;;
11247;SDS011;5681;53.316;13.950;2023-07-22T04:48:47;7.72;;;3.88;;
11247;SDS011;5681;53.316;13.950;2023-07-22T04:51:13;6.82;;;4.00;;
11247;SDS011;5681;53.316;13.950;2023-07-22T04:53:39;4.25;;;3.58;;
11247;SDS011;5681;53.316;13.950;2023-07-22T04:56:06;5.10;;;4.07;;
11247;SDS011;5681;53.316;13.950;2023-07-22T04:58:32;5.50;;;3.90;;
11247;SDS011;5681;53.316;13.950;2023-07-22T05:00:58;3.65;;;3.15;;
11247;SDS011;5681;53.316;13.950;2023-07-22T05:03:25;6.68;;;3.35;;
11247;SDS011;5681;53.316;13.950;2023-07-22T05:05:52;6.45;;;4.20;;
11247;SDS011;5681;53.316;13.950;2023-07-22T05:08:19;6.45;;;4.45;;
11247;SDS011;5681;53.316;13.950;2023-07-22T05:10:46;4.82;;;4.18;;
11247;SDS011;5681;53.316;13.950;2023-07-22T05:13:12;5.05;;;4.10;;
11247;SDS011;5681;53.316;13.950;2023-07-22T05:15:38;7.50;;;3.72;;
11247;SDS011;5681;53.316;13.950;2023-07-22T05:18:05;6.43;;;4.00;;
11247;SDS011;5681;53.316;13.950;2023-07-22T05:20:31;7.13;;;4.22;;
11247;SDS011;5681;53.316;13.950;2023-07-22T05:22:59;7.25;;;4.60;;
11247;SDS011;5681;53.316;13.950;2023-07-22T05:25:25;7.95;;;4.85;;
11247;SDS011;5681;53.316;13.950;2023-07-22T05:27:51;6.03;;;4.28;;
11247;SDS011;5681;53.316;13.950;2023-07-22T05:30:18;8.25;;;4.82;;
11247;SDS011;5681;53.316;13.950;2023-07-22T05:32:44;7.13;;;4.40;;
11247;SDS011;5681;53.316;13.950;2023-07-22T05:35:10;7.75;;;5.20;;
11247;SDS011;5681;53.316;13.950;2023-07-22T05:37:37;6.50;;;5.13;;
11247;SDS011;5681;53.316;13.950;2023-07-22T05:40:05;6.20;;;5.57;;
11247;SDS011;5681;53.316;13.950;2023-07-22T05:42:33;6.75;;;5.43;;
11247;SDS011;5681;53.316;13.950;2023-07-22T05:44:59;7.53;;;5.25;;
11247;SDS011;5681;53.316;13.950;2023-07-22T05:47:26;5.85;;;4.85;;
11247;SDS011;5681;53.316;13.950;2023-07-22T05:49:52;7.10;;;4.68;;
11247;SDS011;5681;53.316;13.950;2023-07-22T05:52:18;6.05;;;4.90;;
11247;SDS011;5681;53.316;13.950;2023-07-22T05:54:45;5.47;;;4.05;;
11247;SDS011;5681;53.316;13.950;2023-07-22T05:57:12;7.20;;;4.53;;
11247;SDS011;5681;53.316;13.950;2023-07-22T05:59:39;5.20;;;3.92;;
11247;SDS011;5681;53.316;13.950;2023-07-22T06:02:06;6.35;;;4.13;;
11247;SDS011;5681;53.316;13.950;2023-07-22T06:04:32;6.93;;;3.58;;
11247;SDS011;5681;53.316;13.950;2023-07-22T06:06:58;7.40;;;4.00;;
11247;SDS011;5681;53.316;13.950;2023-07-22T06:09:25;8.40;;;3.97;;
11247;SDS011;5681;53.316;13.950;2023-07-22T06:11:51;7.38;;;4.45;;
11247;SDS011;5681;53.316;13.950;2023-07-22T06:14:19;6.18;;;3.80;;
11247;SDS011;5681;53.316;13.950;2023-07-22T06:16:45;7.07;;;4.40;;
11247;SDS011;5681;53.316;13.950;2023-07-22T06:19:11;6.13;;;3.42;;
11247;SDS011;5681;53.316;13.950;2023-07-22T06:21:38;7.05;;;3.97;;
11247;SDS011;5681;53.316;13.950;2023-07-22T06:24:04;8.07;;;3.33;;
11247;SDS011;5681;53.316;13.950;2023-07-22T06:26:31;8.18;;;3.47;;
11247;SDS011;5681;53.316;13.950;2023-07-22T06:28:57;5.35;;;3.28;;
11247;SDS011;5681;53.316;13.950;2023-07-22T06:31:25;6.72;;;3.53;;
11247;SDS011;5681;53.316;13.950;2023-07-22T06:33:55;7.07;;;3.25;;
11247;SDS011;5681;53.316;13.950;2023-07-22T06:36:21;4.63;;;3.00;;
11247;SDS011;5681;53.316;13.950;2023-07-22T06:38:48;8.73;;;3.33;;
11247;SDS011;5681;53.316;13.950;2023-07-22T06:41:15;3.67;;;2.65;;
11247;SDS011;5681;53.316;13.950;2023-07-22T06:43:41;4.43;;;2.83;;
11247;SDS011;5681;53.316;13.950;2023-07-22T06:46:08;5.13;;;2.95;;
11247;SDS011;5681;53.316;13.950;2023-07-22T06:48:35;5.53;;;3.08;;
11247;SDS011;5681;53.316;13.950;2023-07-22T06:51:02;3.47;;;2.78;;
11247;SDS011;5681;53.316;13.950;2023-07-22T06:53:28;5.63;;;3.00;;
11247;SDS011;5681;53.316;13.950;2023-07-22T06:55:56;10.80;;;3.10;;
11247;SDS011;5681;53.316;13.950;2023-07-22T06:58:22;4.50;;;3.20;;
11247;SDS011;5681;53.316;13.950;2023-07-22T07:00:52;5.88;;;3.22;;
11247;SDS011;5681;53.316;13.950;2023-07-22T07:03:18;4.50;;;3.20;;
11247;SDS011;5681;53.316;13.950;2023-07-22T07:05:52;6.20;;;3.50;;
11247;SDS011;5681;53.316;13.950;2023-07-22T07:08:19;6.47;;;3.25;;
11247;SDS011;5681;53.316;13.950;2023-07-22T07:10:45;5.18;;;3.42;;
11247;SDS011;5681;53.316;13.950;2023-07-22T07:13:11;5.55;;;3.35;;
11247;SDS011;5681;53.316;13.950;2023-07-22T07:15:38;6.22;;;3.15;;
11247;SDS011;5681;53.316;13.950;2023-07-22T07:18:04;5.82;;;3.20;;
11247;SDS011;5681;53.316;13.950;2023-07-22T07:20:31;5.18;;;3.28;;
11247;SDS011;5681;53.316;13.950;2023-07-22T07:22:58;4.38;;;3.10;;
11247;SDS011;5681;53.316;13.950;2023-07-22T07:25:25;7.75;;;3.30;;
11247;SDS011;5681;53.316;13.950;2023-07-22T07:27:51;7.35;;;3.28;;
11247;SDS011;5681;53.316;13.950;2023-07-22T07:30:17;8.38;;;3.92;;
11247;SDS011;5681;53.316;13.950;2023-07-22T07:32:44;6.90;;;3.78;;
11247;SDS011;5681;53.316;13.950;2023-07-22T07:35:10;7.40;;;3.22;;
11247;SDS011;5681;53.316;13.950;2023-07-22T07:37:36;4.32;;;3.35;;
11247;SDS011;5681;53.316;13.950;2023-07-22T07:40:05;6.90;;;3.47;;
11247;SDS011;5681;53.316;13.950;2023-07-22T07:42:33;7.10;;;3.30;;
11247;SDS011;5681;53.316;13.950;2023-07-22T07:44:59;7.72;;;3.25;;
11247;SDS011;5681;53.316;13.950;2023-07-22T07:47:26;4.60;;;3.25;;
11247;SDS011;5681;53.316;13.950;2023-07-22T07:49:52;6.90;;;3.33;;
11247;SDS011;5681;53.316;13.950;2023-07-22T07:52:18;7.45;;;3.83;;
11247;SDS011;5681;53.316;13.950;2023-07-22T07:54:45;7.38;;;3.90;;
11247;SDS011;5681;53.316;13.950;2023-07-22T07:57:12;5.45;;;3.85;;
11247;SDS011;5681;53.316;13.950;2023-07-22T07:59:39;5.20;;;3.40;;
11247;SDS011;5681;53.316;13.950;2023-07-22T08:02:05;6.05;;;3.95;;
11247;SDS011;5681;53.316;13.950;2023-07-22T08:04:35;7.53;;;4.18;;
11247;SDS011;5681;53.316;13.950;2023-07-22T08:07:02;6.00;;;3.25;;
11247;SDS011;5681;53.316;13.950;2023-07-22T08:09:29;5.88;;;3.63;;
11247;SDS011;5681;53.316;13.950;2023-07-22T08:11:55;6.47;;;3.42;;
11247;SDS011;5681;53.316;13.950;2023-07-22T08:14:23;5.97;;;3.80;;
11247;SDS011;5681;53.316;13.950;2023-07-22T08:16:49;6.10;;;3.65;;
11247;SDS011;5681;53.316;13.950;2023-07-22T08:19:16;6.38;;;3.80;;
11247;SDS011;5681;53.316;13.950;2023-07-22T08:21:42;5.07;;;3.83;;
11247;SDS011;5681;53.316;13.950;2023-07-22T08:24:08;6.93;;;3.78;;
11247;SDS011;5681;53.316;13.950;2023-07-22T08:26:35;5.32;;;3.50;;
11247;SDS011;5681;53.316;13.950;2023-07-22T08:29:01;4.63;;;4.05;;
11247;SDS011;5681;53.316;13.950;2023-07-22T08:31:29;6.70;;;4.07;;
11247;SDS011;5681;53.316;13.950;2023-07-22T08:33:55;5.57;;;3.78;;
11247;SDS011;5681;53.316;13.950;2023-07-22T08:36:22;5.90;;;3.30;;
11247;SDS011;5681;53.316;13.950;2023-07-22T08:38:49;4.95;;;3.92;;
11247;SDS011;5681;53.316;13.950;2023-07-22T08:41:16;6.25;;;3.47;;
11247;SDS011;5681;53.316;13.950;2023-07-22T08:43:42;6.85;;;4.03;;
11247;SDS011;5681;53.316;13.950;2023-07-22T08:46:11;5.43;;;3.40;;
11247;SDS011;5681;53.316;13.950;2023-07-22T08:48:40;6.45;;;3.53;;
11247;SDS011;5681;53.316;13.950;2023-07-22T08:51:09;7.63;;;3.80;;
11247;SDS011;5681;53.316;13.950;2023-07-22T08:53:36;3.60;;;3.25;;
11247;SDS011;5681;53.316;13.950;2023-07-22T08:56:03;4.38;;;3.17;;
11247;SDS011;5681;53.316;13.950;2023-07-22T08:58:30;3.95;;;2.70;;
11247;SDS011;5681;53.316;13.950;2023-07-22T09:00:56;6.78;;;3.47;;
11247;SDS011;5681;53.316;13.950;2023-07-22T09:03:24;5.38;;;2.95;;
11247;SDS011;5681;53.316;13.950;2023-07-22T09:05:52;5.18;;;2.90;;
11247;SDS011;5681;53.316;13.950;2023-07-22T09:08:18;6.00;;;2.72;;
11247;SDS011;5681;53.316;13.950;2023-07-22T09:10:45;2.80;;;2.20;;
11247;SDS011;5681;53.316;13.950;2023-07-22T09:13:12;3.15;;;2.38;;
11247;SDS011;5681;53.316;13.950;2023-07-22T09:15:39;4.18;;;2.20;;
11247;SDS011;5681;53.316;13.950;2023-07-22T09:18:06;3.35;;;2.45;;
11247;SDS011;5681;53.316;13.950;2023-07-22T09:20:32;2.90;;;2.20;;
11247;SDS011;5681;53.316;13.950;2023-07-22T09:23:00;5.97;;;2.92;;
11247;SDS011;5681;53.316;13.950;2023-07-22T09:25:27;7.38;;;2.58;;
11247;SDS011;5681;53.316;13.950;2023-07-22T09:27:55;3.95;;;2.10;;
11247;SDS011;5681;53.316;13.950;2023-07-22T09:30:22;4.82;;;2.30;;
11247;SDS011;5681;53.316;13.950;2023-07-22T09:32:50;5.03;;;2.30;;
11247;SDS011;5681;53.316;13.950;2023-07-22T09:35:17;5.35;;;2.25;;
11247;SDS011;5681;53.316;13.950;2023-07-22T09:37:43;2.33;;;1.80;;
11247;SDS011;5681;53.316;13.950;2023-07-22T09:40:15;3.97;;;1.70;;
11247;SDS011;5681;53.316;13.950;2023-07-22T09:42:43;3.42;;;1.90;;
11247;SDS011;5681;53.316;13.950;2023-07-22T09:45:10;3.50;;;1.40;;
11247;SDS011;5681;53.316;13.950;2023-07-22T09:47:39;2.38;;;1.77;;
11247;SDS011;5681;53.316;13.950;2023-07-22T09:50:06;3.47;;;1.63;;
11247;SDS011;5681;53.316;13.950;2023-07-22T09:52:33;3.60;;;1.92;;
11247;SDS011;5681;53.316;13.950;2023-07-22T09:54:59;3.25;;;1.70;;
11247;SDS011;5681;53.316;13.950;2023-07-22T09:57:27;4.18;;;2.00;;
11247;SDS011;5681;53.316;13.950;2023-07-22T09:59:53;2.53;;;1.50;;
11247;SDS011;5681;53.316;13.950;2023-07-22T10:02:20;5.90;;;2.00;;
11247;SDS011;5681;53.316;13.950;2023-07-22T10:04:48;4.53;;;1.33;;
11247;SDS011;5681;53.316;13.950;2023-07-22T10:07:16;3.53;;;1.40;;
11247;SDS011;5681;53.316;13.950;2023-07-22T10:09:42;2.42;;;1.40;;
11247;SDS011;5681;53.316;13.950;2023-07-22T10:12:09;2.47;;;1.70;;
11247;SDS011;5681;53.316;13.950;2023-07-22T10:14:38;1.98;;;1.60;;
11247;SDS011;5681;53.316;13.950;2023-07-22T10:17:05;2.38;;;1.60;;
11247;SDS011;5681;53.316;13.950;2023-07-22T10:19:33;2.88;;;1.60;;
11247;SDS011;5681;53.316;13.950;2023-07-22T10:22:00;2.13;;;1.30;;
11247;SDS011;5681;53.316;13.950;2023-07-22T10:24:27;2.28;;;1.63;;
11247;SDS011;5681;53.316;13.950;2023-07-22T10:26:54;3.50;;;1.50;;
11247;SDS011;5681;53.316;13.950;2023-07-22T10:29:20;1.58;;;1.33;;
11247;SDS011;5681;53.316;13.950;2023-07-22T10:31:48;1.60;;;1.40;;
11247;SDS011;5681;53.316;13.950;2023-07-22T10:34:20;3.28;;;1.70;;
11247;SDS011;5681;53.316;13.950;2023-07-22T10:36:47;4.28;;;1.70;;
11247;SDS011;5681;53.316;13.950;2023-07-22T10:39:18;4.13;;;1.85;;
11247;SDS011;5681;53.316;13.950;2023-07-22T10:41:50;2.75;;;1.38;;
11247;SDS011;5681;53.316;13.950;2023-07-22T10:44:25;4.65;;;1.83;;
11247;SDS011;5681;53.316;13.950;2023-07-22T10:46:57;2.63;;;1.60;;
11247;SDS011;5681;53.316;13.950;2023-07-22T10:49:24;2.47;;;1.42;;
11247;SDS011;5681;53.316;13.950;2023-07-22T10:51:51;3.42;;;1.33;;
11247;SDS011;5681;53.316;13.950;2023-07-22T10:54:31;2.22;;;1.17;;
11247;SDS011;5681;53.316;13.950;2023-07-22T10:57:01;2.95;;;1.58;;
11247;SDS011;5681;53.316;13.950;2023-07-22T10:59:32;3.65;;;1.42;;
11247;SDS011;5681;53.316;13.950;2023-07-22T11:02:00;1.85;;;1.25;;
11247;SDS011;5681;53.316;13.950;2023-07-22T11:04:27;2.78;;;1.35;;
11247;SDS011;5681;53.316;13.950;2023-07-22T11:06:57;2.67;;;1.77;;
11247;SDS011;5681;53.316;13.950;2023-07-22T11:09:34;2.75;;;1.75;;
11247;SDS011;5681;53.316;13.950;2023-07-22T11:12:01;2.25;;;1.50;;
11247;SDS011;5681;53.316;13.950;2023-07-22T11:14:29;1.85;;;1.55;;
11247;SDS011;5681;53.316;13.950;2023-07-22T11:16:57;2.55;;;1.70;;
11247;SDS011;5681;53.316;13.950;2023-07-22T11:19:25;2.22;;;1.70;;
11247;SDS011;5681;53.316;13.950;2023-07-22T11:21:52;4.18;;;1.50;;
11247;SDS011;5681;53.316;13.950;2023-07-22T11:24:19;2.13;;;1.50;;
11247;SDS011;5681;53.316;13.950;2023-07-22T11:26:47;1.40;;;1.30;;
11247;SDS011;5681;53.316;13.950;2023-07-22T11:29:14;4.10;;;1.60;;
11247;SDS011;5681;53.316;13.950;2023-07-22T11:31:41;3.75;;;1.33;;
11247;SDS011;5681;53.316;13.950;2023-07-22T11:34:10;2.47;;;1.55;;
11247;SDS011;5681;53.316;13.950;2023-07-22T11:36:38;1.98;;;1.52;;
11247;SDS011;5681;53.316;13.950;2023-07-22T11:39:05;1.98;;;1.42;;
11247;SDS011;5681;53.316;13.950;2023-07-22T11:41:34;2.10;;;1.48;;
11247;SDS011;5681;53.316;13.950;2023-07-22T11:44:01;2.63;;;1.42;;
11247;SDS011;5681;53.316;13.950;2023-07-22T11:46:32;1.63;;;1.30;;
11247;SDS011;5681;53.316;13.950;2023-07-22T11:48:59;2.15;;;1.33;;
11247;SDS011;5681;53.316;13.950;2023-07-22T11:51:25;2.75;;;1.35;;
11247;SDS011;5681;53.316;13.950;2023-07-22T11:53:53;2.55;;;1.50;;
11247;SDS011;5681;53.316;13.950;2023-07-22T11:56:21;1.65;;;1.33;;
11247;SDS011;5681;53.316;13.950;2023-07-22T11:58:48;3.25;;;1.40;;
11247;SDS011;5681;53.316;13.950;2023-07-22T12:01:16;1.63;;;1.35;;
11247;SDS011;5681;53.316;13.950;2023-07-22T12:03:42;1.67;;;1.33;;
11247;SDS011;5681;53.316;13.950;2023-07-22T12:06:08;2.67;;;1.50;;
11247;SDS011;5681;53.316;13.950;2023-07-22T12:08:35;1.90;;;1.40;;
11247;SDS011;5681;53.316;13.950;2023-07-22T12:11:03;1.52;;;1.40;;
11247;SDS011;5681;53.316;13.950;2023-07-22T12:13:35;1.85;;;1.50;;
11247;SDS011;5681;53.316;13.950;2023-07-22T12:16:02;1.90;;;1.50;;
11247;SDS011;5681;53.316;13.950;2023-07-22T12:18:40;3.00;;;1.70;;
11247;SDS011;5681;53.316;13.950;2023-07-22T12:21:07;3.40;;;1.60;;
11247;SDS011;5681;53.316;13.950;2023-07-22T12:23:34;3.53;;;1.50;;
11247;SDS011;5681;53.316;13.950;2023-07-22T12:26:01;2.65;;;1.40;;
11247;SDS011;5681;53.316;13.950;2023-07-22T12:28:29;5.32;;;1.40;;
11247;SDS011;5681;53.316;13.950;2023-07-22T12:30:55;1.75;;;1.40;;
11247;SDS011;5681;53.316;13.950;2023-07-22T12:33:22;4.43;;;1.48;;
11247;SDS011;5681;53.316;13.950;2023-07-22T12:35:49;3.05;;;1.40;;
11247;SDS011;5681;53.316;13.950;2023-07-22T12:38:15;2.80;;;1.83;;
11247;SDS011;5681;53.316;13.950;2023-07-22T12:40:42;1.95;;;1.70;;
11247;SDS011;5681;53.316;13.950;2023-07-22T12:43:08;1.80;;;1.35;;
11247;SDS011;5681;53.316;13.950;2023-07-22T12:45:36;3.88;;;1.65;;
11247;SDS011;5681;53.316;13.950;2023-07-22T12:48:03;2.38;;;1.60;;
11247;SDS011;5681;53.316;13.950;2023-07-22T12:50:30;3.17;;;1.42;;
11247;SDS011;5681;53.316;13.950;2023-07-22T12:52:57;2.60;;;1.33;;
11247;SDS011;5681;53.316;13.950;2023-07-22T12:55:23;2.42;;;1.60;;
11247;SDS011;5681;53.316;13.950;2023-07-22T12:57:49;2.00;;;1.70;;
11247;SDS011;5681;53.316;13.950;2023-07-22T13:00:16;4.20;;;1.85;;
11247;SDS011;5681;53.316;13.950;2023-07-22T13:02:43;1.95;;;1.65;;
11247;SDS011;5681;53.316;13.950;2023-07-22T13:05:10;1.63;;;1.40;;
11247;SDS011;5681;53.316;13.950;2023-07-22T13:07:36;2.42;;;1.60;;
11247;SDS011;5681;53.316;13.950;2023-07-22T13:10:03;3.10;;;1.80;;
11247;SDS011;5681;53.316;13.950;2023-07-22T13:12:33;2.42;;;1.67;;
11247;SDS011;5681;53.316;13.950;2023-07-22T13:15:00;6.45;;;2.03;;
11247;SDS011;5681;53.316;13.950;2023-07-22T13:17:26;2.33;;;1.70;;
11247;SDS011;5681;53.316;13.950;2023-07-22T13:19:54;2.45;;;1.58;;
11247;SDS011;5681;53.316;13.950;2023-07-22T13:22:20;2.05;;;1.60;;
11247;SDS011;5681;53.316;13.950;2023-07-22T13:24:46;4.28;;;1.45;;
11247;SDS011;5681;53.316;13.950;2023-07-22T13:27:13;4.30;;;1.50;;
11247;SDS011;5681;53.316;13.950;2023-07-22T13:29:39;2.50;;;1.50;;
11247;SDS011;5681;53.316;13.950;2023-07-22T13:32:06;1.70;;;1.30;;
11247;SDS011;5681;53.316;13.950;2023-07-22T13:34:32;3.03;;;1.40;;
11247;SDS011;5681;53.316;13.950;2023-07-22T13:37:00;4.20;;;1.48;;
11247;SDS011;5681;53.316;13.950;2023-07-22T13:39:27;1.95;;;1.40;;
11247;SDS011;5681;53.316;13.950;2023-07-22T13:41:54;2.58;;;1.48;;
11247;SDS011;5681;53.316;13.950;2023-07-22T13:44:20;4.97;;;1.30;;
11247;SDS011;5681;53.316;13.950;2023-07-22T13:46:46;2.22;;;1.35;;
11247;SDS011;5681;53.316;13.950;2023-07-22T13:49:13;1.88;;;1.20;;
11247;SDS011;5681;53.316;13.950;2023-07-22T13:51:40;1.67;;;1.23;;
11247;SDS011;5681;53.316;13.950;2023-07-22T13:54:07;4.03;;;1.35;;
11247;SDS011;5681;53.316;13.950;2023-07-22T13:56:34;1.58;;;1.23;;
11247;SDS011;5681;53.316;13.950;2023-07-22T13:59:00;2.17;;;1.30;;
11247;SDS011;5681;53.316;13.950;2023-07-22T14:01:29;4.22;;;1.40;;
11247;SDS011;5681;53.316;13.950;2023-07-22T14:03:56;1.30;;;1.20;;
11247;SDS011;5681;53.316;13.950;2023-07-22T14:06:22;3.75;;;1.10;;
11247;SDS011;5681;53.316;13.950;2023-07-22T14:08:48;2.33;;;1.20;;
11247;SDS011;5681;53.316;13.950;2023-07-22T14:11:16;1.30;;;1.20;;
11247;SDS011;5681;53.316;13.950;2023-07-22T14:13:43;3.85;;;1.20;;
11247;SDS011;5681;53.316;13.950;2023-07-22T14:16:10;2.78;;;1.20;;
11247;SDS011;5681;53.316;13.950;2023-07-22T14:18:37;2.22;;;1.30;;
11247;SDS011;5681;53.316;13.950;2023-07-22T14:21:03;2.55;;;1.30;;
11247;SDS011;5681;53.316;13.950;2023-07-22T14:23:29;2.13;;;1.50;;
11247;SDS011;5681;53.316;13.950;2023-07-22T14:25:56;1.40;;;1.30;;
11247;SDS011;5681;53.316;13.950;2023-07-22T14:28:23;3.03;;;1.20;;
11247;SDS011;5681;53.316;13.950;2023-07-22T14:30:50;2.78;;;1.30;;
11247;SDS011;5681;53.316;13.950;2023-07-22T14:33:16;1.55;;;1.20;;
11247;SDS011;5681;53.316;13.950;2023-07-22T14:35:42;1.77;;;1.10;;
11247;SDS011;5681;53.316;13.950;2023-07-22T14:38:09;3.20;;;1.15;;
11247;SDS011;5681;53.316;13.950;2023-07-22T14:40:36;1.35;;;1.20;;
11247;SDS011;5681;53.316;13.950;2023-07-22T14:43:02;2.30;;;1.10;;
11247;SDS011;5681;53.316;13.950;2023-07-22T14:45:30;2.40;;;1.20;;
11247;SDS011;5681;53.316;13.950;2023-07-22T14:47:56;1.20;;;0.95;;